createdAt,value
2023-03-04T00:00:19.726Z,96634.75
2023-03-04T00:02:46.387Z,96655.78
2023-03-04T00:05:13.262Z,96605.34
2023-03-04T00:07:39.895Z,96651.16
2023-03-04T00:10:07.190Z,96627.16
2023-03-04T00:12:33.852Z,96635.78
2023-03-04T00:15:00.470Z,96620.84
2023-03-04T00:17:27.121Z,96608.16
2023-03-04T00:19:53.701Z,96636.34
2023-03-04T00:22:20.405Z,96590.91
2023-03-04T00:24:47.069Z,96641.00
2023-03-04T00:27:16.461Z,96608.47
2023-03-04T00:29:43.066Z,96630.94
2023-03-04T00:32:09.828Z,96617.09
2023-03-04T00:34:36.688Z,96625.47
2023-03-04T00:37:04.074Z,96620.44
2023-03-04T00:39:30.794Z,96606.69
2023-03-04T00:41:57.379Z,96621.53
2023-03-04T00:44:24.092Z,96590.47
2023-03-04T00:46:50.792Z,96648.16
2023-03-04T00:49:17.833Z,96615.63
2023-03-04T00:51:44.524Z,96584.41
2023-03-04T00:54:14.024Z,96638.94
2023-03-04T00:56:40.684Z,96589.59
2023-03-04T00:59:07.253Z,96603.28
2023-03-04T01:01:34.000Z,96604.88
2023-03-04T01:04:02.988Z,96596.00
2023-03-04T01:06:29.872Z,96584.31
2023-03-04T01:08:56.498Z,96601.94
2023-03-04T01:11:23.190Z,96619.66
2023-03-04T01:13:49.827Z,96615.63
2023-03-04T01:16:16.503Z,96549.31
2023-03-04T01:18:43.155Z,96620.22
2023-03-04T01:21:09.781Z,96569.84
2023-03-04T01:23:36.409Z,96572.22
2023-03-04T01:26:03.064Z,96581.41
2023-03-04T01:28:29.871Z,96611.00
2023-03-04T01:30:56.537Z,96611.56
2023-03-04T01:33:23.653Z,96550.44
2023-03-04T01:35:50.450Z,96573.56
2023-03-04T01:38:17.141Z,96597.69
2023-03-04T01:40:43.984Z,96574.56
2023-03-04T01:43:20.617Z,96600.69
2023-03-04T01:45:52.101Z,96585.34
2023-03-04T01:48:24.586Z,96567.16
2023-03-04T01:50:51.399Z,96581.75
2023-03-04T01:53:22.325Z,96600.03
2023-03-04T01:55:49.854Z,96599.56
2023-03-04T01:58:16.455Z,96601.66
2023-03-04T02:00:43.176Z,96567.31
2023-03-04T02:03:15.335Z,96596.59
2023-03-04T02:05:45.872Z,96592.22
2023-03-04T02:08:14.315Z,96584.94
2023-03-04T02:10:43.174Z,96562.44
2023-03-04T02:13:11.356Z,96582.91
2023-03-04T02:15:38.247Z,96571.28
2023-03-04T02:18:18.687Z,96570.63
2023-03-04T02:20:54.139Z,96577.91
2023-03-04T02:23:31.221Z,96550.22
2023-03-04T02:26:19.139Z,96562.25
2023-03-04T02:28:50.966Z,96555.50
2023-03-04T02:31:29.979Z,96560.19
2023-03-04T02:33:59.343Z,96542.81
2023-03-04T02:36:28.128Z,96513.44
2023-03-04T02:38:56.141Z,96556.97
2023-03-04T02:41:26.382Z,96549.13
2023-03-04T02:43:55.796Z,96548.44
2023-03-04T02:46:23.420Z,96472.53
2023-03-04T02:48:51.424Z,96545.28
2023-03-04T02:51:18.045Z,96532.94
2023-03-04T02:53:44.805Z,96511.44
2023-03-04T02:56:12.472Z,96502.69
2023-03-04T02:58:40.585Z,96525.22
2023-03-04T03:01:09.301Z,96498.78
2023-03-04T03:03:36.040Z,96523.88
2023-03-04T03:06:02.855Z,96492.03
2023-03-04T03:08:30.088Z,96487.97
2023-03-04T03:10:56.745Z,96502.63
2023-03-04T03:13:25.241Z,96482.22
2023-03-04T03:15:52.263Z,96480.59
2023-03-04T03:18:18.944Z,96482.38
2023-03-04T03:20:45.841Z,96520.47
2023-03-04T03:23:12.850Z,96521.06
2023-03-04T03:25:39.475Z,96521.41
2023-03-04T03:28:06.361Z,96495.41
2023-03-04T03:30:32.974Z,96505.81
2023-03-04T03:32:59.656Z,96506.06
2023-03-04T03:35:26.344Z,96496.06
2023-03-04T03:37:52.972Z,96495.06
2023-03-04T03:40:19.609Z,96533.31
2023-03-04T03:42:46.237Z,96523.97
2023-03-04T03:45:13.089Z,96488.69
2023-03-04T03:47:40.085Z,96531.06
2023-03-04T03:50:07.321Z,96500.56
2023-03-04T03:52:36.235Z,96526.78
2023-03-04T03:55:03.015Z,96497.38
2023-03-04T03:57:29.927Z,96529.22
2023-03-04T03:59:56.822Z,96511.19
2023-03-04T04:02:23.770Z,96535.84
2023-03-04T04:04:50.605Z,96527.66
2023-03-04T04:07:17.631Z,96533.28
2023-03-04T04:09:44.337Z,96531.59
2023-03-04T04:12:14.758Z,96511.28
2023-03-04T04:14:41.550Z,96527.44
2023-03-04T04:17:08.729Z,96534.84
2023-03-04T04:19:35.382Z,96508.22
2023-03-04T04:22:02.869Z,96521.88
2023-03-04T04:24:29.697Z,96533.34
2023-03-04T04:26:57.357Z,96546.00
2023-03-04T04:29:24.186Z,96522.66
2023-03-04T04:31:51.100Z,96551.75
2023-03-04T04:34:17.846Z,96541.06
2023-03-04T04:36:44.550Z,96514.25
2023-03-04T04:39:11.198Z,96505.94
2023-03-04T04:41:40.832Z,96550.81
2023-03-04T04:44:08.383Z,96562.22
2023-03-04T04:46:35.451Z,96553.75
2023-03-04T04:49:02.284Z,96559.69
2023-03-04T04:51:29.062Z,96540.19
2023-03-04T04:53:55.853Z,96563.88
2023-03-04T04:56:26.295Z,96544.78
2023-03-04T04:58:55.098Z,96559.34
2023-03-04T05:01:22.086Z,96561.59
2023-03-04T05:03:50.608Z,96518.88
2023-03-04T05:06:17.317Z,96518.69
2023-03-04T05:08:43.875Z,96542.88
2023-03-04T05:11:10.697Z,96524.53
2023-03-04T05:13:37.584Z,96552.91
2023-03-04T05:16:04.709Z,96505.03
2023-03-04T05:18:31.732Z,96528.59
2023-03-04T05:21:00.410Z,96567.38
2023-03-04T05:23:28.790Z,96555.06
2023-03-04T05:25:55.735Z,96534.97
2023-03-04T05:28:22.348Z,96529.16
2023-03-04T05:30:49.320Z,96548.09
2023-03-04T05:33:18.004Z,96560.22
2023-03-04T05:35:45.798Z,96566.59
2023-03-04T05:38:14.931Z,96551.59
2023-03-04T05:40:42.592Z,96520.19
2023-03-04T05:43:09.910Z,96534.06
2023-03-04T05:45:37.851Z,96485.09
2023-03-04T05:48:05.217Z,96542.94
2023-03-04T05:50:31.912Z,96492.94
2023-03-04T05:52:58.674Z,96547.41
2023-03-04T05:55:26.948Z,96560.22
2023-03-04T05:57:53.815Z,96571.31
2023-03-04T06:00:20.752Z,96576.13
2023-03-04T06:02:47.530Z,96536.44
2023-03-04T06:05:15.182Z,96571.72
2023-03-04T06:07:45.788Z,96587.53
2023-03-04T06:10:15.333Z,96587.06
2023-03-04T06:12:42.367Z,96584.31
2023-03-04T06:15:13.036Z,96588.00
2023-03-04T06:17:42.238Z,96593.16
2023-03-04T06:20:10.995Z,96589.13
2023-03-04T06:22:37.789Z,96594.63
2023-03-04T06:25:04.740Z,96546.50
2023-03-04T06:27:31.399Z,96558.06
2023-03-04T06:29:58.117Z,96594.97
2023-03-04T06:32:24.932Z,96605.94
2023-03-04T06:34:51.575Z,96583.28
2023-03-04T06:37:18.299Z,96605.81
2023-03-04T06:39:45.866Z,96596.50
2023-03-04T06:42:12.854Z,96605.59
2023-03-04T06:44:39.444Z,96574.88
2023-03-04T06:47:06.095Z,96613.66
2023-03-04T06:49:32.750Z,96589.56
2023-03-04T06:51:59.384Z,96616.00
2023-03-04T06:54:26.037Z,96621.59
2023-03-04T06:56:52.601Z,96609.00
2023-03-04T06:59:19.253Z,96617.47
2023-03-04T07:01:45.893Z,96626.88
2023-03-04T07:04:13.886Z,96589.59
2023-03-04T07:06:40.851Z,96610.81
2023-03-04T07:09:07.539Z,96632.13
2023-03-04T07:11:34.187Z,96623.41
2023-03-04T07:14:00.874Z,96615.31
2023-03-04T07:16:27.636Z,96614.16
2023-03-04T07:18:54.238Z,96629.56
2023-03-04T07:21:20.844Z,96629.91
2023-03-04T07:23:47.994Z,96639.66
2023-03-04T07:26:14.844Z,96608.94
2023-03-04T07:28:42.769Z,96607.53
2023-03-04T07:31:09.493Z,96643.78
2023-03-04T07:33:36.171Z,96627.19
2023-03-04T07:36:02.860Z,96624.19
2023-03-04T07:38:29.408Z,96616.19
2023-03-04T07:40:57.642Z,96622.41
2023-03-04T07:43:24.307Z,96620.38
2023-03-04T07:45:50.968Z,96617.69
2023-03-04T07:48:17.718Z,96618.03
2023-03-04T07:50:44.311Z,96639.09
2023-03-04T07:53:10.898Z,96628.69
2023-03-04T07:55:37.482Z,96593.13
2023-03-04T07:58:04.189Z,96658.78
2023-03-04T08:00:30.756Z,96637.16
2023-03-04T08:02:57.382Z,96646.69
2023-03-04T08:05:23.934Z,96656.44
2023-03-04T08:07:50.531Z,96641.88
2023-03-04T08:10:17.240Z,96650.31
2023-03-04T08:12:43.905Z,96634.91
2023-03-04T08:15:11.121Z,96639.19
2023-03-04T08:17:38.085Z,96655.28
2023-03-04T08:20:05.036Z,96666.50
2023-03-04T08:22:31.706Z,96668.59
2023-03-04T08:24:58.296Z,96653.34
2023-03-04T08:27:24.945Z,96660.44
2023-03-04T08:29:51.673Z,96647.72
2023-03-04T08:32:18.455Z,96616.66
2023-03-04T08:34:45.176Z,96655.16
2023-03-04T08:37:11.789Z,96594.97
2023-03-04T08:39:38.376Z,96616.72
2023-03-04T08:42:05.056Z,96643.66
2023-03-04T08:44:31.672Z,96633.25
2023-03-04T08:46:58.346Z,96615.63
2023-03-04T08:49:24.960Z,96666.66
2023-03-04T08:51:51.601Z,96671.13
2023-03-04T08:54:18.275Z,96605.31
2023-03-04T08:56:44.979Z,96664.72
2023-03-04T08:59:11.792Z,96646.13
2023-03-04T09:01:38.541Z,96665.75
2023-03-04T09:04:05.324Z,96653.91
2023-03-04T09:06:32.118Z,96667.91
2023-03-04T09:08:58.710Z,96676.25
2023-03-04T09:11:25.332Z,96638.06
2023-03-04T09:13:51.984Z,96583.38
2023-03-04T09:16:19.117Z,96669.34
2023-03-04T09:18:45.930Z,96644.31
2023-03-04T09:21:12.628Z,96632.19
2023-03-04T09:23:39.458Z,96670.72
2023-03-04T09:26:27.303Z,96682.72
2023-03-04T09:29:00.016Z,96683.50
2023-03-04T09:31:27.290Z,96679.06
2023-03-04T09:33:54.773Z,96676.69
2023-03-04T09:36:21.966Z,96683.09
2023-03-04T09:38:48.713Z,96674.28
2023-03-04T09:41:29.483Z,96651.69
2023-03-04T09:43:57.086Z,96680.16
2023-03-04T09:46:34.164Z,96652.44
2023-03-04T09:49:00.970Z,96674.97
2023-03-04T09:51:45.633Z,96679.75
2023-03-04T09:54:25.949Z,96676.38
2023-03-04T09:56:59.956Z,96670.16
2023-03-04T09:59:43.200Z,96633.44
2023-03-04T10:02:30.406Z,96637.16
2023-03-04T10:05:03.175Z,96662.91
2023-03-04T10:07:36.228Z,96648.91
2023-03-04T10:10:31.276Z,96641.06
2023-03-04T10:12:59.561Z,96670.19
2023-03-04T10:15:37.986Z,96667.59
2023-03-04T10:18:14.783Z,96655.97
2023-03-04T10:20:53.126Z,96650.47
2023-03-04T10:23:24.957Z,96658.09
2023-03-04T10:25:54.262Z,96656.16
2023-03-04T10:28:30.373Z,96648.53
2023-03-04T10:31:06.146Z,96674.09
2023-03-04T10:33:35.671Z,96667.63
2023-03-04T10:36:27.470Z,96678.63
2023-03-04T10:38:59.199Z,96633.25
2023-03-04T10:41:28.475Z,96657.59
2023-03-04T10:44:10.508Z,96660.16
2023-03-04T10:46:45.448Z,96617.91
2023-03-04T10:49:17.095Z,96655.13
2023-03-04T10:52:00.730Z,96658.34
2023-03-04T10:54:32.133Z,96661.50
2023-03-04T10:57:04.848Z,96648.34
2023-03-04T10:59:56.268Z,96616.03
2023-03-04T11:02:24.169Z,96659.38
2023-03-04T11:05:04.842Z,96662.50
2023-03-04T11:07:38.107Z,96607.13
2023-03-04T11:10:36.408Z,96650.00
2023-03-04T11:13:02.961Z,96661.44
2023-03-04T11:15:31.919Z,96631.47
2023-03-04T11:18:05.870Z,96642.22
2023-03-04T11:20:48.500Z,96575.78
2023-03-04T11:23:18.710Z,96640.00
2023-03-04T11:25:52.263Z,96583.78
2023-03-04T11:28:28.568Z,96574.16
2023-03-04T11:31:00.487Z,96624.72
2023-03-04T11:33:32.178Z,96619.09
2023-03-04T11:36:30.251Z,96651.78
2023-03-04T11:38:57.634Z,96618.72
2023-03-04T11:41:38.889Z,96645.09
2023-03-04T11:44:07.102Z,96613.47
2023-03-04T11:46:39.754Z,96634.81
2023-03-04T11:49:43.669Z,96633.81
2023-03-04T11:52:27.046Z,96584.97
2023-03-04T11:54:59.708Z,96624.66
2023-03-04T11:57:38.366Z,96628.66
2023-03-04T12:00:26.579Z,96621.78
2023-03-04T12:03:14.790Z,96615.28
2023-03-04T12:05:59.472Z,96611.38
2023-03-04T12:08:32.068Z,96606.69
2023-03-04T12:11:29.210Z,96605.13
2023-03-04T12:14:09.409Z,96544.66
2023-03-04T12:17:02.352Z,96595.25
2023-03-04T12:19:41.053Z,96586.75
2023-03-04T12:22:45.367Z,96586.47
2023-03-04T12:25:17.688Z,96582.09
2023-03-04T12:28:20.972Z,96518.72
2023-03-04T12:30:56.727Z,96579.19
2023-03-04T12:33:40.781Z,96562.25
2023-03-04T12:36:34.908Z,96577.69
2023-03-04T12:39:18.227Z,96569.59
2023-03-04T12:41:56.417Z,96577.66
2023-03-04T12:44:23.451Z,96540.16
2023-03-04T12:47:07.069Z,96569.28
2023-03-04T12:50:02.567Z,96555.56
2023-03-04T12:52:48.651Z,96564.47
2023-03-04T12:55:25.180Z,96527.47
2023-03-04T12:57:54.955Z,96510.28
2023-03-04T13:01:09.091Z,96554.84
2023-03-04T13:03:44.721Z,96554.53
2023-03-04T13:06:33.389Z,96516.78
2023-03-04T13:09:20.443Z,96537.13
2023-03-04T13:11:54.836Z,96545.69
2023-03-04T13:14:21.484Z,96535.28
2023-03-04T13:16:57.238Z,96537.13
2023-03-04T13:19:58.558Z,96539.19
2023-03-04T13:22:29.691Z,96499.38
2023-03-04T13:24:58.172Z,96525.94
2023-03-04T13:28:05.646Z,96530.09
2023-03-04T13:30:32.413Z,96525.16
2023-03-04T13:33:21.529Z,96522.56
2023-03-04T13:36:05.322Z,96526.75
2023-03-04T13:38:34.960Z,96528.03
2023-03-04T13:41:15.510Z,96524.16
2023-03-04T13:43:47.465Z,96503.06
2023-03-04T13:46:20.290Z,96514.78
2023-03-04T13:49:04.803Z,96517.63
2023-03-04T13:51:31.346Z,96513.50
2023-03-04T13:54:02.710Z,96521.28
2023-03-04T13:56:47.488Z,96518.47
2023-03-04T13:59:41.953Z,96489.81
2023-03-04T14:02:11.600Z,96524.66
2023-03-04T14:04:45.103Z,96517.94
2023-03-04T14:07:28.695Z,96517.97
2023-03-04T14:09:55.267Z,96519.75
2023-03-04T14:12:22.696Z,96480.19
2023-03-04T14:14:56.146Z,96489.81
2023-03-04T14:17:27.275Z,96511.44
2023-03-04T14:19:54.359Z,96501.00
2023-03-04T14:22:27.097Z,96498.41
2023-03-04T14:25:04.049Z,96509.06
2023-03-04T14:27:35.453Z,96491.88
2023-03-04T14:30:05.715Z,96501.53
2023-03-04T14:32:32.761Z,96454.16
2023-03-04T14:35:04.372Z,96497.63
2023-03-04T14:37:43.610Z,96475.50
2023-03-04T14:40:22.194Z,96487.47
2023-03-04T14:42:53.485Z,96450.50
2023-03-04T14:45:22.044Z,96492.44
2023-03-04T14:47:49.077Z,96446.59
2023-03-04T14:50:20.786Z,96489.28
2023-03-04T14:53:09.613Z,96476.28
2023-03-04T14:55:36.391Z,96469.50
2023-03-04T14:58:07.149Z,96481.75
2023-03-04T15:00:36.332Z,96484.91
2023-03-04T15:03:28.501Z,96439.34
2023-03-04T15:05:58.359Z,96461.22
2023-03-04T15:08:33.199Z,96473.69
2023-03-04T15:11:02.731Z,96459.91
2023-03-04T15:13:48.130Z,96420.09
2023-03-04T15:16:16.964Z,96464.34
2023-03-04T15:19:02.268Z,96456.25
2023-03-04T15:21:34.688Z,96453.91
2023-03-04T15:24:03.596Z,96428.44
2023-03-04T15:26:34.818Z,96422.94
2023-03-04T15:29:04.166Z,96434.13
2023-03-04T15:31:30.821Z,96406.03
2023-03-04T15:33:57.496Z,96425.28
2023-03-04T15:36:24.453Z,96424.75
2023-03-04T15:38:53.224Z,96444.28
2023-03-04T15:41:25.187Z,96453.94
2023-03-04T15:43:53.159Z,96456.00
2023-03-04T15:46:20.514Z,96429.47
2023-03-04T15:48:48.341Z,96443.50
2023-03-04T15:51:19.798Z,96459.13
2023-03-04T15:53:50.274Z,96441.94
2023-03-04T15:56:20.498Z,96453.41
2023-03-04T15:58:54.155Z,96400.84
2023-03-04T16:01:23.757Z,96443.75
2023-03-04T16:03:53.400Z,96442.72
2023-03-04T16:06:24.239Z,96445.84
2023-03-04T16:08:52.329Z,96430.50
2023-03-04T16:11:21.586Z,96445.06
2023-03-04T16:13:48.976Z,96445.06
2023-03-04T16:16:16.181Z,96422.97
2023-03-04T16:18:43.254Z,96400.03
2023-03-04T16:21:14.494Z,96360.53
2023-03-04T16:23:44.155Z,96454.97
2023-03-04T16:26:22.582Z,96451.84
2023-03-04T16:28:49.976Z,96445.84
2023-03-04T16:31:17.437Z,96445.84
2023-03-04T16:33:47.718Z,96429.19
2023-03-04T16:36:26.962Z,96391.44
2023-03-04T16:38:59.203Z,96425.28
2023-03-04T16:41:28.425Z,96438.81
2023-03-04T16:43:57.881Z,96415.41
2023-03-04T16:46:24.561Z,96408.63
2023-03-04T16:48:51.213Z,96442.22
2023-03-04T16:51:21.079Z,96424.78
2023-03-04T16:53:51.998Z,96404.22
2023-03-04T16:56:19.693Z,96444.53
2023-03-04T16:58:47.354Z,96446.09
2023-03-04T17:01:26.114Z,96447.66
2023-03-04T17:03:53.949Z,96444.81
2023-03-04T17:06:22.014Z,96444.56
2023-03-04T17:08:51.848Z,96426.03
2023-03-04T17:11:21.707Z,96448.19
2023-03-04T17:13:48.437Z,96457.28
2023-03-04T17:16:15.613Z,96454.69
2023-03-04T17:18:44.199Z,96398.22
2023-03-04T17:21:13.709Z,96449.22
2023-03-04T17:23:40.645Z,96426.56
2023-03-04T17:26:07.491Z,96371.16
2023-03-04T17:28:34.119Z,96431.75
2023-03-04T17:31:00.894Z,96456.50
2023-03-04T17:33:28.093Z,96470.00
2023-03-04T17:35:56.160Z,96467.44
2023-03-04T17:38:22.852Z,96427.59
2023-03-04T17:40:49.483Z,96403.94
2023-03-04T17:43:16.121Z,96435.66
2023-03-04T17:45:43.677Z,96444.00
2023-03-04T17:48:15.113Z,96468.22
2023-03-04T17:50:52.068Z,96450.28
2023-03-04T17:53:20.094Z,96470.56
2023-03-04T17:55:57.646Z,96466.38
2023-03-04T17:58:24.442Z,96383.88
2023-03-04T18:00:53.272Z,96439.81
2023-03-04T18:03:19.922Z,96427.63
2023-03-04T18:05:46.537Z,96404.97
2023-03-04T18:08:13.181Z,96455.22
2023-03-04T18:10:39.842Z,96422.94
2023-03-04T18:13:06.441Z,96457.00
2023-03-04T18:15:33.080Z,96409.63
2023-03-04T18:17:59.872Z,96454.66
2023-03-04T18:20:26.485Z,96409.38
2023-03-04T18:22:53.209Z,96419.22
2023-03-04T18:25:21.385Z,96424.22
2023-03-04T18:27:48.020Z,96415.88
2023-03-04T18:30:20.867Z,96388.56
2023-03-04T18:32:52.176Z,96415.09
2023-03-04T18:35:20.220Z,96427.06
2023-03-04T18:37:47.736Z,96397.13
2023-03-04T18:40:15.433Z,96432.53
2023-03-04T18:42:44.268Z,96393.47
2023-03-04T18:45:15.146Z,96438.25
2023-03-04T18:47:45.274Z,96366.13
2023-03-04T18:50:13.685Z,96429.16
2023-03-04T18:52:40.363Z,96409.06
2023-03-04T18:55:07.384Z,96426.78
2023-03-04T18:57:34.456Z,96403.09
2023-03-04T19:00:04.574Z,96311.47
2023-03-04T19:02:41.015Z,96434.31
2023-03-04T19:05:18.849Z,96391.88
2023-03-04T19:07:45.780Z,96277.91
2023-03-04T19:10:13.069Z,96422.06
2023-03-04T19:12:39.819Z,96364.03
2023-03-04T19:15:08.619Z,96338.00
2023-03-04T19:17:35.913Z,96383.31
2023-03-04T19:20:04.378Z,96356.75
2023-03-04T19:22:31.024Z,96417.91
2023-03-04T19:24:57.864Z,96383.56
2023-03-04T19:27:24.494Z,96311.47
2023-03-04T19:29:51.214Z,96341.38
2023-03-04T19:32:18.585Z,96427.81
2023-03-04T19:34:46.416Z,96414.81
2023-03-04T19:37:14.112Z,96416.91
2023-03-04T19:39:43.504Z,96405.16
2023-03-04T19:42:11.185Z,96360.69
2023-03-04T19:44:38.176Z,96415.31
2023-03-04T19:47:05.723Z,96418.19
2023-03-04T19:49:33.265Z,96416.38
2023-03-04T19:52:00.526Z,96411.66
2023-03-04T19:54:30.291Z,96286.78
2023-03-04T19:56:58.382Z,96411.16
2023-03-04T19:59:25.091Z,96393.19
2023-03-04T20:01:52.083Z,96365.09
2023-03-04T20:04:20.997Z,96417.41
2023-03-04T20:06:50.146Z,96388.00
2023-03-04T20:09:18.259Z,96389.81
2023-03-04T20:11:57.181Z,96411.19
2023-03-04T20:14:25.026Z,96377.59
2023-03-04T20:16:51.731Z,96415.56
2023-03-04T20:19:18.438Z,96383.06
2023-03-04T20:21:45.161Z,96425.22
2023-03-04T20:24:15.177Z,96395.00
2023-03-04T20:26:41.858Z,96403.09
2023-03-04T20:29:08.530Z,96379.41
2023-03-04T20:31:38.363Z,96407.00
2023-03-04T20:34:06.342Z,96396.56
2023-03-04T20:36:33.764Z,96418.47
2023-03-04T20:39:02.715Z,96416.91
2023-03-04T20:41:33.065Z,96426.53
2023-03-04T20:43:59.726Z,96312.56
2023-03-04T20:46:41.172Z,96425.25
2023-03-04T20:49:23.549Z,96417.97
2023-03-04T20:51:51.658Z,96420.56
2023-03-04T20:54:18.764Z,96425.25
2023-03-04T20:56:45.503Z,96244.94
2023-03-04T20:59:12.572Z,96342.75
2023-03-04T21:01:42.274Z,96417.19
2023-03-04T21:04:09.586Z,96395.31
2023-03-04T21:06:38.665Z,96355.00
2023-03-04T21:09:09.030Z,96419.53
2023-03-04T21:11:42.677Z,96406.50
2023-03-04T21:14:19.548Z,96416.63
2023-03-04T21:16:46.822Z,96413.28
2023-03-04T21:19:16.904Z,96418.47
2023-03-04T21:21:44.254Z,96415.13
2023-03-04T21:24:14.294Z,96248.41
2023-03-04T21:26:43.059Z,96407.59
2023-03-04T21:29:09.759Z,96360.50
2023-03-04T21:31:40.189Z,96373.50
2023-03-04T21:34:14.500Z,96399.78
2023-03-04T21:36:41.163Z,96391.72
2023-03-04T21:39:08.211Z,96383.41
2023-03-04T21:41:34.835Z,96371.94
2023-03-04T21:44:01.482Z,96390.16
2023-03-04T21:46:28.265Z,96350.34
2023-03-04T21:48:55.004Z,96394.84
2023-03-04T21:51:21.660Z,96398.72
2023-03-04T21:53:48.286Z,96380.00
2023-03-04T21:56:15.595Z,96299.38
2023-03-04T21:58:42.349Z,96357.63
2023-03-04T22:01:18.661Z,96396.69
2023-03-04T22:03:48.620Z,96366.22
2023-03-04T22:06:17.021Z,96346.72
2023-03-04T22:08:43.728Z,96388.06
2023-03-04T22:11:12.405Z,96345.16
2023-03-04T22:13:39.181Z,96324.34
2023-03-04T22:16:06.969Z,96301.50
2023-03-04T22:18:34.048Z,96378.72
2023-03-04T22:21:08.463Z,96292.13
2023-03-04T22:23:35.091Z,96385.72
2023-03-04T22:26:05.999Z,96384.69
2023-03-04T22:28:33.365Z,96378.19
2023-03-04T22:31:01.885Z,96365.47
2023-03-04T22:33:29.212Z,96271.31
2023-03-04T22:35:56.070Z,96350.88
2023-03-04T22:38:22.880Z,96344.38
2023-03-04T22:40:50.043Z,96375.34
2023-03-04T22:43:16.707Z,96295.22
2023-03-04T22:45:43.362Z,96330.59
2023-03-04T22:48:09.984Z,96359.47
2023-03-04T22:50:36.653Z,96363.63
2023-03-04T22:53:06.672Z,96319.94
2023-03-04T22:55:33.682Z,96371.44
2023-03-04T22:58:04.154Z,96337.88
2023-03-04T23:00:32.583Z,96338.41
2023-03-04T23:02:59.379Z,96333.97
2023-03-04T23:05:26.179Z,96304.09
2023-03-04T23:07:52.929Z,96294.19
2023-03-04T23:10:25.136Z,96283.28
2023-03-04T23:12:52.641Z,96338.69
2023-03-04T23:15:20.237Z,96365.97
2023-03-04T23:17:47.902Z,96339.72
2023-03-04T23:20:20.152Z,96368.31
2023-03-04T23:22:48.329Z,96363.38
2023-03-04T23:25:16.565Z,96359.22
2023-03-04T23:27:43.764Z,96334.25
2023-03-04T23:30:15.394Z,96289.25
2023-03-04T23:32:43.332Z,96355.06
2023-03-04T23:35:10.482Z,96338.16
2023-03-04T23:37:37.128Z,96345.69
2023-03-04T23:40:04.488Z,96329.81
2023-03-04T23:42:31.284Z,96312.16
2023-03-04T23:44:57.947Z,96315.00
2023-03-04T23:47:24.636Z,96328.78
2023-03-04T23:49:51.341Z,96316.56
2023-03-04T23:52:17.944Z,96338.94
2023-03-04T23:54:44.546Z,96315.00
2023-03-04T23:57:11.219Z,96308.53
2023-03-04T23:59:38.874Z,96338.41
